Time;durP1;ratioP1;P1;durP2;ratioP2;P2;SDS_P1;SDS_P2;PMS_P1;PMS_P2;Temp;Humidity;BMP_temperature;BMP_pressure;BME280_temperature;BME280_humidity;BME280_pressure;Samples;Min_cycle;Max_cycle;Signal;HPM_P1;HPM_P2
2021/08/24 00:01:37;;;;;;;;;;;24.70;50.60;;;;;;4342117;33;20347;-39
2021/08/24 00:04:03;;;;;;;;;;;24.70;50.30;;;;;;4342598;33;20397;-41
2021/08/24 00:06:29;;;;;;;;;;;24.80;50.10;;;;;;4343075;33;20386;-39
2021/08/24 00:08:56;;;;;;;;;;;24.80;50.00;;;;;;4342568;32;20402;-38
2021/08/24 00:11:22;;;;;;;;;;;24.90;49.70;;;;;;4317693;33;20489;-38
2021/08/24 00:13:48;;;;;;;;;;;24.90;49.60;;;;;;4342488;33;20434;-38
2021/08/24 00:16:17;;;;;;;;;;;24.90;49.30;;;;;;4327381;33;19978;-39
2021/08/24 00:18:44;;;;;;;;;;;24.90;49.40;;;;;;4338637;33;19973;-39
2021/08/24 00:21:10;;;;;;;;;;;24.80;49.20;;;;;;4342648;33;19955;-39
2021/08/24 00:23:36;;;;;;;;;;;24.80;49.10;;;;;;4342859;33;19977;-38
2021/08/24 00:26:03;;;;;;;;;;;24.80;49.00;;;;;;4330032;33;19961;-38
2021/08/24 00:28:29;;;;;;;;;;;24.70;49.10;;;;;;4354996;32;19985;-38
2021/08/24 00:30:55;;;;;;;;;;;24.60;49.00;;;;;;4344925;32;20066;-38
2021/08/24 00:33:22;;;;;;;;;;;24.70;49.20;;;;;;4345118;32;19950;-38
2021/08/24 00:35:48;;;;;;;;;;;24.80;49.10;;;;;;4358218;32;19969;-38
2021/08/24 00:38:17;;;;;;;;;;;24.70;48.90;;;;;;4345250;32;20009;-38
2021/08/24 00:40:50;;;;;;;;;;;24.70;48.90;;;;;;4344360;32;19969;-38
2021/08/24 00:43:16;;;;;;;;;;;24.80;48.80;;;;;;4344329;32;20058;-37
2021/08/24 00:45:43;;;;;;;;;;;24.80;48.70;;;;;;4356745;32;19958;-38
2021/08/24 00:48:09;;;;;;;;;;;24.80;48.80;;;;;;4357276;32;19969;-37
2021/08/24 00:50:37;;;;;;;;;;;24.80;48.80;;;;;;4344379;32;20415;-38
2021/08/24 00:53:11;;;;;;;;;;;24.70;48.70;;;;;;4338594;33;20081;-38
2021/08/24 00:55:41;;;;;;;;;;;24.80;48.80;;;;;;4327687;33;19959;-39
2021/08/24 00:58:10;;;;;;;;;;;24.70;48.30;;;;;;4327816;33;20041;-38
2021/08/24 01:00:37;;;;;;;;;;;24.60;48.40;;;;;;4327329;33;20411;-38
2021/08/24 01:03:17;;;;;;;;;;;24.70;48.40;;;;;;4328105;33;19985;-38
2021/08/24 01:05:44;;;;;;;;;;;24.60;48.00;;;;;;4327521;33;19959;-38
2021/08/24 01:08:38;;;;;;;;;;;24.70;47.70;;;;;;4312195;33;20077;-39
2021/08/24 01:11:29;;;;;;;;;;;24.70;47.60;;;;;;4300901;33;19990;-39
2021/08/24 01:14:12;;;;;;;;;;;24.70;47.50;;;;;;4300775;33;19966;-45
2021/08/24 01:16:45;;;;;;;;;;;24.80;47.30;;;;;;4300015;33;19978;-37
2021/08/24 01:19:38;;;;;;;;;;;24.70;47.40;;;;;;4300288;33;19982;-38
2021/08/24 01:22:30;;;;;;;;;;;24.70;47.50;;;;;;4300491;33;20514;-38
2021/08/24 01:25:04;;;;;;;;;;;24.70;47.50;;;;;;4312628;33;19963;-38
2021/08/24 01:27:37;;;;;;;;;;;24.80;47.30;;;;;;4312878;33;19962;-38
2021/08/24 01:30:48;;;;;;;;;;;24.80;47.10;;;;;;4309907;33;19958;-38
2021/08/24 01:33:26;;;;;;;;;;;24.90;47.20;;;;;;4327286;33;19979;-38
2021/08/24 01:36:06;;;;;;;;;;;24.80;47.00;;;;;;4319936;33;20042;-37
2021/08/24 01:38:34;;;;;;;;;;;24.90;47.00;;;;;;4324129;33;21002;-38
2021/08/24 01:41:29;;;;;;;;;;;24.90;46.80;;;;;;4335333;33;20037;-39
2021/08/24 01:44:03;;;;;;;;;;;24.90;46.80;;;;;;4348862;33;20445;-37
2021/08/24 01:46:40;;;;;;;;;;;24.90;46.80;;;;;;4335254;33;19993;-38
2021/08/24 01:49:07;;;;;;;;;;;25.00;46.80;;;;;;4335887;33;19950;-38
2021/08/24 01:51:40;;;;;;;;;;;25.00;46.80;;;;;;4348927;33;20070;-37
2021/08/24 01:54:27;;;;;;;;;;;25.00;46.80;;;;;;4310866;33;20351;-37
2021/08/24 01:56:53;;;;;;;;;;;25.10;46.90;;;;;;4322900;33;20446;-38
2021/08/24 01:59:34;;;;;;;;;;;25.00;46.90;;;;;;4348844;33;19970;-38
2021/08/24 02:02:09;;;;;;;;;;;25.10;47.10;;;;;;4336378;33;20099;-37
2021/08/24 02:04:52;;;;;;;;;;;25.10;46.90;;;;;;4335307;33;19951;-37
2021/08/24 02:07:19;;;;;;;;;;;25.00;46.90;;;;;;4334915;33;19993;-38
2021/08/24 02:09:47;;;;;;;;;;;24.90;47.10;;;;;;4348915;33;19993;-38
2021/08/24 02:12:14;;;;;;;;;;;24.90;47.50;;;;;;4349077;33;20036;-38
2021/08/24 02:14:40;;;;;;;;;;;24.90;47.60;;;;;;4323245;33;20042;-38
2021/08/24 02:17:08;;;;;;;;;;;24.90;47.60;;;;;;4349898;32;19958;-38
2021/08/24 02:19:42;;;;;;;;;;;25.00;47.50;;;;;;4337452;32;20380;-38
2021/08/24 02:22:21;;;;;;;;;;;25.00;47.40;;;;;;4349879;32;20023;-37
2021/08/24 02:24:51;;;;;;;;;;;25.00;47.40;;;;;;4363754;32;20425;-38
2021/08/24 02:27:21;;;;;;;;;;;25.00;47.30;;;;;;4350059;32;20402;-38
2021/08/24 02:29:47;;;;;;;;;;;25.00;47.30;;;;;;4363465;32;19973;-38
2021/08/24 02:32:16;;;;;;;;;;;25.00;47.40;;;;;;4363645;32;19954;-38
2021/08/24 02:34:54;;;;;;;;;;;25.00;47.60;;;;;;4363702;32;20066;-38
2021/08/24 02:37:24;;;;;;;;;;;25.00;47.70;;;;;;4374643;32;19950;-37
2021/08/24 02:40:02;;;;;;;;;;;24.90;47.80;;;;;;4364237;32;19964;-38
2021/08/24 02:42:32;;;;;;;;;;;24.90;47.90;;;;;;4361176;32;19961;-38
2021/08/24 02:45:08;;;;;;;;;;;24.90;47.90;;;;;;4362586;32;20463;-38
2021/08/24 02:47:35;;;;;;;;;;;25.00;47.80;;;;;;4370469;32;20464;-38
2021/08/24 02:50:03;;;;;;;;;;;25.10;47.90;;;;;;4360855;32;20382;-38
2021/08/24 02:52:29;;;;;;;;;;;25.10;47.70;;;;;;4371435;32;19957;-38
2021/08/24 02:54:55;;;;;;;;;;;25.10;47.70;;;;;;4327895;33;20132;-37
2021/08/24 02:57:21;;;;;;;;;;;25.10;47.70;;;;;;4328549;33;20123;-38
2021/08/24 02:59:48;;;;;;;;;;;25.00;47.90;;;;;;4328396;33;20089;-37
2021/08/24 03:02:14;;;;;;;;;;;25.00;48.00;;;;;;4328551;33;19970;-38
2021/08/24 03:04:40;;;;;;;;;;;25.00;47.90;;;;;;4315773;33;19980;-39
2021/08/24 03:07:11;;;;;;;;;;;25.10;47.70;;;;;;4313039;33;19979;-37
2021/08/24 03:09:37;;;;;;;;;;;25.20;47.50;;;;;;4301869;33;20501;-38
2021/08/24 03:12:12;;;;;;;;;;;25.20;48.10;;;;;;4313535;33;19977;-38
2021/08/24 03:14:59;;;;;;;;;;;25.20;47.50;;;;;;4313578;33;20118;-38
2021/08/24 03:17:58;;;;;;;;;;;25.30;47.40;;;;;;4301148;33;20403;-39
2021/08/24 03:20:29;;;;;;;;;;;25.40;47.20;;;;;;4304851;33;20521;-38
2021/08/24 03:22:55;;;;;;;;;;;25.50;46.90;;;;;;4313589;33;19958;-38
2021/08/24 03:25:22;;;;;;;;;;;25.50;46.70;;;;;;4308834;33;19962;-39
2021/08/24 03:27:51;;;;;;;;;;;25.70;46.40;;;;;;4318123;33;19985;-38
2021/08/24 03:30:18;;;;;;;;;;;25.80;46.10;;;;;;4342453;33;20428;-39
2021/08/24 03:32:45;;;;;;;;;;;25.90;46.00;;;;;;4356153;32;19958;-39
2021/08/24 03:35:12;;;;;;;;;;;26.00;45.50;;;;;;4357248;32;20434;-40
2021/08/24 03:37:38;;;;;;;;;;;26.10;45.50;;;;;;4362429;32;19977;-39
2021/08/24 03:40:06;;;;;;;;;;;26.20;45.30;;;;;;4360814;32;19980;-39
2021/08/24 03:42:32;;;;;;;;;;;26.30;44.90;;;;;;4374492;32;20440;-38
2021/08/24 03:44:58;;;;;;;;;;;26.50;44.50;;;;;;4374713;32;20424;-38
2021/08/24 03:47:24;;;;;;;;;;;26.60;44.30;;;;;;4360471;32;19997;-40
2021/08/24 03:49:51;;;;;;;;;;;26.80;44.00;;;;;;4374307;32;20430;-38
2021/08/24 03:52:17;;;;;;;;;;;26.90;43.80;;;;;;4375169;32;19962;-38
2021/08/24 03:54:43;;;;;;;;;;;27.00;43.30;;;;;;4374225;32;19970;-38
2021/08/24 03:57:09;;;;;;;;;;;27.20;43.10;;;;;;4374200;32;20031;-38
2021/08/24 03:59:35;;;;;;;;;;;27.30;42.80;;;;;;4374044;32;20437;-38
2021/08/24 04:02:02;;;;;;;;;;;27.50;42.80;;;;;;4360301;32;19969;-39
2021/08/24 04:04:28;;;;;;;;;;;27.60;42.20;;;;;;4374307;32;20057;-39
2021/08/24 04:06:54;;;;;;;;;;;27.70;42.00;;;;;;4374336;32;19996;-38
2021/08/24 04:09:20;;;;;;;;;;;27.80;42.10;;;;;;4373007;32;19964;-37
2021/08/24 04:11:47;;;;;;;;;;;27.90;42.20;;;;;;4374513;32;20035;-38
2021/08/24 04:14:13;;;;;;;;;;;28.00;42.10;;;;;;4373694;32;19960;-38
2021/08/24 04:16:39;;;;;;;;;;;28.00;42.10;;;;;;4373877;32;19953;-38
2021/08/24 04:19:05;;;;;;;;;;;28.10;42.00;;;;;;4373956;32;20057;-38
2021/08/24 04:21:31;;;;;;;;;;;28.20;42.00;;;;;;4373708;32;20405;-38
2021/08/24 04:23:57;;;;;;;;;;;28.20;42.00;;;;;;4374182;32;19965;-38
2021/08/24 04:26:25;;;;;;;;;;;28.20;41.80;;;;;;4373602;32;19964;-38
2021/08/24 04:28:52;;;;;;;;;;;28.10;41.90;;;;;;4373943;32;20008;-38
2021/08/24 04:31:18;;;;;;;;;;;28.10;42.00;;;;;;4369018;32;19966;-38
2021/08/24 04:33:44;;;;;;;;;;;28.00;42.10;;;;;;4358864;32;20112;-39
2021/08/24 04:36:10;;;;;;;;;;;28.00;42.00;;;;;;4358925;32;19989;-38
2021/08/24 04:38:37;;;;;;;;;;;28.10;42.00;;;;;;4358888;32;19962;-38
2021/08/24 04:41:03;;;;;;;;;;;28.10;42.10;;;;;;4359049;32;20467;-38
2021/08/24 04:43:29;;;;;;;;;;;28.10;41.90;;;;;;4358463;32;19950;-38
2021/08/24 04:45:55;;;;;;;;;;;28.10;41.70;;;;;;4359011;32;20406;-36
2021/08/24 04:48:21;;;;;;;;;;;28.20;41.90;;;;;;4341079;32;19970;-38
2021/08/24 04:50:48;;;;;;;;;;;28.30;41.60;;;;;;4341688;33;19973;-39
2021/08/24 04:53:14;;;;;;;;;;;28.20;41.00;;;;;;4341364;32;20009;-38
2021/08/24 04:55:40;;;;;;;;;;;28.20;41.30;;;;;;4340859;33;19978;-38
2021/08/24 04:58:07;;;;;;;;;;;28.40;41.10;;;;;;4341588;32;19970;-38
2021/08/24 05:00:34;;;;;;;;;;;28.50;41.00;;;;;;4341411;32;20043;-38
2021/08/24 05:03:00;;;;;;;;;;;28.70;40.50;;;;;;4340819;32;19966;-39
2021/08/24 05:05:26;;;;;;;;;;;28.90;40.10;;;;;;4341312;33;20030;-38
2021/08/24 05:07:53;;;;;;;;;;;29.00;39.50;;;;;;4328813;33;20469;-37
2021/08/24 05:10:19;;;;;;;;;;;29.20;39.40;;;;;;4341089;32;19963;-37
2021/08/24 05:12:45;;;;;;;;;;;29.30;39.00;;;;;;4341479;32;19986;-38
2021/08/24 05:15:11;;;;;;;;;;;29.40;38.90;;;;;;4340842;32;20415;-37
2021/08/24 05:17:38;;;;;;;;;;;29.40;38.90;;;;;;4340665;33;20120;-38
2021/08/24 05:20:04;;;;;;;;;;;29.30;38.60;;;;;;4340951;33;19962;-38
2021/08/24 05:22:31;;;;;;;;;;;29.30;38.80;;;;;;4341276;32;20075;-39
2021/08/24 05:24:57;;;;;;;;;;;29.40;38.70;;;;;;4343719;32;20323;-38
2021/08/24 05:27:23;;;;;;;;;;;29.50;38.70;;;;;;4340527;33;19966;-39
2021/08/24 05:29:49;;;;;;;;;;;29.80;38.30;;;;;;4341020;32;19970;-39
2021/08/24 05:32:16;;;;;;;;;;;30.00;38.10;;;;;;4352109;32;20158;-39
2021/08/24 05:34:42;;;;;;;;;;;30.20;37.90;;;;;;4355618;32;20448;-38
2021/08/24 05:37:08;;;;;;;;;;;30.30;37.40;;;;;;4355968;32;19962;-38
2021/08/24 05:39:35;;;;;;;;;;;30.50;37.10;;;;;;4356011;32;19966;-38
2021/08/24 05:42:01;;;;;;;;;;;30.50;36.90;;;;;;4355882;32;20382;-39
2021/08/24 05:44:28;;;;;;;;;;;30.60;36.90;;;;;;4356023;32;19973;-40
2021/08/24 05:46:54;;;;;;;;;;;30.60;36.70;;;;;;4355749;32;20009;-40
2021/08/24 05:49:20;;;;;;;;;;;30.60;36.60;;;;;;4356103;32;20003;-38
2021/08/24 05:51:46;;;;;;;;;;;30.60;36.70;;;;;;4355771;32;19997;-38
2021/08/24 05:54:13;;;;;;;;;;;30.80;36.70;;;;;;4356410;32;19958;-39
2021/08/24 05:56:41;;;;;;;;;;;30.90;36.60;;;;;;4356761;32;19961;-38
2021/08/24 05:59:07;;;;;;;;;;;31.00;36.10;;;;;;4356740;32;20373;-39
2021/08/24 06:01:33;;;;;;;;;;;31.10;36.10;;;;;;4344175;32;20406;-38
2021/08/24 06:03:59;;;;;;;;;;;31.20;35.90;;;;;;4357995;32;20051;-39
2021/08/24 06:06:34;;;;;;;;;;;31.20;35.80;;;;;;4344628;32;19968;-38
2021/08/24 06:09:00;;;;;;;;;;;31.30;35.80;;;;;;4358331;32;20000;-38
2021/08/24 06:11:28;;;;;;;;;;;31.10;35.80;;;;;;4340298;33;19974;-38
2021/08/24 06:13:54;;;;;;;;;;;31.20;36.20;;;;;;4328824;33;20399;-39
2021/08/24 06:16:21;;;;;;;;;;;31.30;36.00;;;;;;4328332;33;19970;-38
2021/08/24 06:18:47;;;;;;;;;;;31.50;35.70;;;;;;4340790;33;19958;-39
2021/08/24 06:21:13;;;;;;;;;;;31.80;35.30;;;;;;4342762;33;20038;-38
2021/08/24 06:23:40;;;;;;;;;;;31.90;35.30;;;;;;4343090;33;19970;-39
2021/08/24 06:26:06;;;;;;;;;;;32.00;35.10;;;;;;4343273;33;19977;-37
2021/08/24 06:28:32;;;;;;;;;;;32.00;34.80;;;;;;4343202;33;19964;-37
2021/08/24 06:30:58;;;;;;;;;;;32.10;34.90;;;;;;4343745;33;20100;-38
2021/08/24 06:33:29;;;;;;;;;;;32.40;34.70;;;;;;4343264;32;19962;-39
2021/08/24 06:35:55;;;;;;;;;;;32.60;34.70;;;;;;4343403;33;19970;-37
2021/08/24 06:38:21;;;;;;;;;;;32.80;34.10;;;;;;4330806;33;19996;-38
2021/08/24 06:40:47;;;;;;;;;;;33.10;34.00;;;;;;4343162;33;20041;-38
2021/08/24 06:43:14;;;;;;;;;;;33.30;33.60;;;;;;4343032;32;20494;-37
2021/08/24 06:45:41;;;;;;;;;;;33.50;33.20;;;;;;4343209;33;20067;-38
2021/08/24 06:48:07;;;;;;;;;;;33.70;33.10;;;;;;4345921;32;20079;-39
2021/08/24 06:50:33;;;;;;;;;;;34.00;32.70;;;;;;4360461;32;20394;-39
2021/08/24 06:53:00;;;;;;;;;;;34.00;32.30;;;;;;4360579;32;19969;-38
2021/08/24 06:55:30;;;;;;;;;;;34.00;32.20;;;;;;4360280;32;20928;-38
2021/08/24 06:57:58;;;;;;;;;;;34.10;32.50;;;;;;4347033;32;20365;-38
2021/08/24 07:00:24;;;;;;;;;;;34.20;32.00;;;;;;4360335;32;19961;-38
2021/08/24 07:02:51;;;;;;;;;;;34.30;32.00;;;;;;4333773;32;20460;-37
2021/08/24 07:05:18;;;;;;;;;;;34.30;32.00;;;;;;4360376;32;20031;-37
2021/08/24 07:07:44;;;;;;;;;;;34.30;31.90;;;;;;4359903;32;20033;-37
2021/08/24 07:10:11;;;;;;;;;;;34.30;31.90;;;;;;4360049;32;19968;-37
2021/08/24 07:12:38;;;;;;;;;;;34.50;31.90;;;;;;4360185;32;20412;-38
2021/08/24 07:15:04;;;;;;;;;;;34.50;31.70;;;;;;4345917;32;19974;-37
2021/08/24 07:17:31;;;;;;;;;;;34.70;31.80;;;;;;4359876;32;19981;-38
2021/08/24 07:19:57;;;;;;;;;;;34.90;32.40;;;;;;4360248;32;19958;-38
2021/08/24 07:22:23;;;;;;;;;;;35.10;31.20;;;;;;4341759;33;19974;-38
2021/08/24 07:24:49;;;;;;;;;;;35.20;31.10;;;;;;4342278;33;19974;-38
2021/08/24 07:27:16;;;;;;;;;;;35.30;30.90;;;;;;4342285;33;20069;-38
2021/08/24 07:29:42;;;;;;;;;;;35.50;30.90;;;;;;4329895;33;20399;-39
2021/08/24 07:32:09;;;;;;;;;;;35.70;30.70;;;;;;4341670;32;19962;-38
2021/08/24 07:34:36;;;;;;;;;;;35.70;30.40;;;;;;4342133;33;20045;-39
2021/08/24 07:37:03;;;;;;;;;;;35.70;30.50;;;;;;4342435;33;19970;-39
2021/08/24 07:39:29;;;;;;;;;;;35.80;30.40;;;;;;4342553;33;19979;-39
2021/08/24 07:41:55;;;;;;;;;;;36.00;30.20;;;;;;4342530;33;20103;-39
2021/08/24 07:44:26;;;;;;;;;;;36.00;29.90;;;;;;4342136;33;20445;-39
2021/08/24 07:46:52;;;;;;;;;;;36.20;29.80;;;;;;4342360;33;20074;-38
2021/08/24 07:49:18;;;;;;;;;;;36.30;29.70;;;;;;4342195;33;19962;-38
2021/08/24 07:51:45;;;;;;;;;;;36.30;29.70;;;;;;4342195;33;20387;-39
2021/08/24 07:54:11;;;;;;;;;;;36.40;29.70;;;;;;4368644;32;19965;-39
2021/08/24 07:56:37;;;;;;;;;;;36.40;29.60;;;;;;4374310;32;20031;-39
2021/08/24 07:59:03;;;;;;;;;;;36.50;29.60;;;;;;4374596;32;19997;-39
2021/08/24 08:01:30;;;;;;;;;;;36.50;29.60;;;;;;4374726;32;19977;-37
2021/08/24 08:03:56;;;;;;;;;;;36.60;29.60;;;;;;4374080;32;19991;-39
2021/08/24 08:06:22;;;;;;;;;;;36.50;30.00;;;;;;4373826;32;19961;-37
2021/08/24 08:08:48;;;;;;;;;;;36.50;29.60;;;;;;4374284;32;19950;-38
2021/08/24 08:11:14;;;;;;;;;;;36.40;29.60;;;;;;4374025;32;20445;-38
2021/08/24 08:13:41;;;;;;;;;;;36.50;29.70;;;;;;4360172;32;19961;-40
2021/08/24 08:16:07;;;;;;;;;;;36.70;29.70;;;;;;4373754;32;19972;-39
2021/08/24 08:18:33;;;;;;;;;;;36.80;29.50;;;;;;4374151;32;20390;-39
2021/08/24 08:20:59;;;;;;;;;;;37.00;29.40;;;;;;4374059;32;20045;-39
2021/08/24 08:23:25;;;;;;;;;;;37.20;29.00;;;;;;4373850;32;19981;-39
2021/08/24 08:25:52;;;;;;;;;;;37.30;28.90;;;;;;4373602;32;19961;-39
2021/08/24 08:28:18;;;;;;;;;;;37.40;28.50;;;;;;4374080;32;20033;-39
2021/08/24 08:30:44;;;;;;;;;;;37.50;28.20;;;;;;4372116;32;19958;-39
2021/08/24 08:33:11;;;;;;;;;;;37.60;28.10;;;;;;4358781;32;20390;-39
2021/08/24 08:35:37;;;;;;;;;;;37.80;28.10;;;;;;4359270;32;19954;-39
2021/08/24 08:38:04;;;;;;;;;;;38.00;28.10;;;;;;4359140;32;19950;-39
2021/08/24 08:40:42;;;;;;;;;;;38.10;27.80;;;;;;4358531;32;20394;-40
2021/08/24 08:43:39;;;;;;;;;;;38.20;27.80;;;;;;4358253;32;19954;-39
2021/08/24 08:46:14;;;;;;;;;;;38.20;27.90;;;;;;4358890;32;19970;-39
2021/08/24 08:48:54;;;;;;;;;;;38.30;27.80;;;;;;4358926;32;19962;-39
2021/08/24 08:51:29;;;;;;;;;;;38.40;27.80;;;;;;4345028;32;19969;-38
2021/08/24 08:54:26;;;;;;;;;;;38.50;27.80;;;;;;4357562;32;20042;-39
2021/08/24 08:56:59;;;;;;;;;;;38.80;27.80;;;;;;4356947;32;20354;-39
2021/08/24 08:59:34;;;;;;;;;;;38.90;27.60;;;;;;4357546;32;20018;-39
2021/08/24 09:02:20;;;;;;;;;;;39.10;27.60;;;;;;4345353;32;19992;-39
2021/08/24 09:04:49;;;;;;;;;;;39.30;27.60;;;;;;4357367;32;20039;-37
2021/08/24 09:07:30;;;;;;;;;;;39.50;27.40;;;;;;4358214;32;19982;-39
2021/08/24 09:09:56;;;;;;;;;;;39.60;27.10;;;;;;4358473;32;19953;-38
2021/08/24 09:12:22;;;;;;;;;;;39.80;27.20;;;;;;4357043;32;20429;-38
2021/08/24 09:14:52;;;;;;;;;;;39.90;26.90;;;;;;4356825;32;19973;-38
2021/08/24 09:17:31;;;;;;;;;;;39.90;26.80;;;;;;4358381;32;19981;-38
2021/08/24 09:20:21;;;;;;;;;;;40.00;26.70;;;;;;4373380;32;19992;-38
2021/08/24 09:22:47;;;;;;;;;;;40.10;26.60;;;;;;4359628;32;20083;-38
2021/08/24 09:25:16;;;;;;;;;;;40.10;26.60;;;;;;4373651;32;19950;-38
2021/08/24 09:27:59;;;;;;;;;;;40.10;26.60;;;;;;4373168;32;20080;-39
2021/08/24 09:30:25;;;;;;;;;;;40.20;26.60;;;;;;4340660;33;20426;-38
2021/08/24 09:32:51;;;;;;;;;;;40.20;26.70;;;;;;4355198;32;19976;-38
2021/08/24 09:35:32;;;;;;;;;;;40.30;26.90;;;;;;4355573;32;20405;-43
2021/08/24 09:38:01;;;;;;;;;;;40.40;26.40;;;;;;4355708;32;19966;-38
2021/08/24 09:40:50;;;;;;;;;;;40.50;26.50;;;;;;4355642;32;20169;-39
2021/08/24 09:43:19;;;;;;;;;;;40.60;26.30;;;;;;4355503;32;20051;-37
2021/08/24 09:45:46;;;;;;;;;;;40.70;26.30;;;;;;4355381;32;19989;-37
2021/08/24 09:48:12;;;;;;;;;;;40.70;26.20;;;;;;4355985;32;20429;-39
2021/08/24 09:50:42;;;;;;;;;;;40.80;26.20;;;;;;4343044;32;19965;-38
2021/08/24 09:53:24;;;;;;;;;;;40.80;25.90;;;;;;4355923;32;19974;-38
2021/08/24 09:55:50;;;;;;;;;;;41.00;25.80;;;;;;4356944;32;19968;-39
2021/08/24 09:58:37;;;;;;;;;;;41.10;25.80;;;;;;4358646;32;20605;-38
2021/08/24 10:01:08;;;;;;;;;;;41.10;25.60;;;;;;4358731;32;19974;-38
2021/08/24 10:03:45;;;;;;;;;;;41.30;25.20;;;;;;4358726;32;20029;-39
2021/08/24 10:06:30;;;;;;;;;;;41.50;25.00;;;;;;4358944;32;19974;-38
2021/08/24 10:09:37;;;;;;;;;;;41.70;24.80;;;;;;4360525;32;19988;-38
2021/08/24 10:12:22;;;;;;;;;;;41.90;24.70;;;;;;4360129;32;20400;-38
2021/08/24 10:14:49;;;;;;;;;;;42.00;24.70;;;;;;4360929;32;19965;-38
2021/08/24 10:17:26;;;;;;;;;;;42.20;24.70;;;;;;4361094;32;20009;-37
2021/08/24 10:19:53;;;;;;;;;;;42.20;24.80;;;;;;4360751;32;19962;-38
2021/08/24 10:22:37;;;;;;;;;;;42.40;24.90;;;;;;4347163;32;20402;-38
2021/08/24 10:25:09;;;;;;;;;;;42.60;25.20;;;;;;4334923;32;19970;-38
2021/08/24 10:27:45;;;;;;;;;;;42.60;25.20;;;;;;4346745;32;19962;-39
2021/08/24 10:30:38;;;;;;;;;;;42.60;25.40;;;;;;4347032;32;20034;-39
2021/08/24 10:33:05;;;;;;;;;;;42.40;25.40;;;;;;4347484;32;19981;-38
2021/08/24 10:35:36;;;;;;;;;;;42.20;25.50;;;;;;4360804;32;19949;-38
2021/08/24 10:38:02;;;;;;;;;;;42.20;25.40;;;;;;4346985;32;20004;-38
2021/08/24 10:40:55;;;;;;;;;;;42.10;25.30;;;;;;4360880;32;20066;-38
2021/08/24 10:43:23;;;;;;;;;;;42.10;25.50;;;;;;4358157;32;19957;-38
2021/08/24 10:46:08;;;;;;;;;;;42.20;25.50;;;;;;4360615;32;19978;-37
2021/08/24 10:48:34;;;;;;;;;;;42.10;25.30;;;;;;4346717;32;19997;-38
2021/08/24 10:51:15;;;;;;;;;;;42.20;25.20;;;;;;4360961;32;19978;-38
2021/08/24 10:54:05;;;;;;;;;;;42.30;25.30;;;;;;4360606;32;19969;-38
2021/08/24 10:56:43;;;;;;;;;;;42.30;24.90;;;;;;4360269;32;19973;-38
2021/08/24 10:59:12;;;;;;;;;;;42.30;24.90;;;;;;4360633;32;19964;-37
2021/08/24 11:01:53;;;;;;;;;;;42.40;25.50;;;;;;4360283;32;19959;-39
2021/08/24 11:04:37;;;;;;;;;;;42.50;24.80;;;;;;4335107;32;19950;-39
2021/08/24 11:07:04;;;;;;;;;;;42.70;23.70;;;;;;4359283;32;20025;-39
2021/08/24 11:09:50;;;;;;;;;;;42.90;23.50;;;;;;4360098;32;19969;-39
2021/08/24 11:12:45;;;;;;;;;;;43.10;23.50;;;;;;4346415;32;19985;-38
2021/08/24 11:15:20;;;;;;;;;;;43.40;23.10;;;;;;4347211;32;20431;-38
2021/08/24 11:18:10;;;;;;;;;;;43.60;22.70;;;;;;4346449;32;20364;-39
2021/08/24 11:20:54;;;;;;;;;;;43.90;22.80;;;;;;4346125;32;19989;-39
2021/08/24 11:23:48;;;;;;;;;;;44.10;22.80;;;;;;4334523;32;19965;-38
2021/08/24 11:26:35;;;;;;;;;;;44.20;22.60;;;;;;4360062;32;20488;-38
2021/08/24 11:29:23;;;;;;;;;;;44.30;22.50;;;;;;4360002;32;19946;-39
2021/08/24 11:32:18;;;;;;;;;;;44.30;22.50;;;;;;4359976;32;19989;-39
2021/08/24 11:35:15;;;;;;;;;;;44.50;22.50;;;;;;4313312;33;19998;-38
2021/08/24 11:37:50;;;;;;;;;;;44.60;22.80;;;;;;4312960;33;19959;-39
2021/08/24 11:40:41;;;;;;;;;;;44.80;22.90;;;;;;4300840;33;19970;-38
2021/08/24 11:43:12;;;;;;;;;;;44.90;22.70;;;;;;4300726;33;19997;-39
2021/08/24 11:45:47;;;;;;;;;;;44.90;22.70;;;;;;4312939;33;21182;-39
2021/08/24 11:48:30;;;;;;;;;;;45.00;22.80;;;;;;4301256;33;20546;-39
2021/08/24 11:51:15;;;;;;;;;;;45.10;22.90;;;;;;4313025;33;20030;-39
2021/08/24 11:53:56;;;;;;;;;;;45.10;22.90;;;;;;4312770;33;20012;-39
2021/08/24 11:57:05;;;;;;;;;;;45.00;22.90;;;;;;4312373;33;20386;-39
2021/08/24 11:59:46;;;;;;;;;;;45.00;22.90;;;;;;4312568;33;19961;-38
2021/08/24 12:02:17;;;;;;;;;;;44.90;23.40;;;;;;4300653;33;19958;-39
2021/08/24 12:04:45;;;;;;;;;;;44.80;23.00;;;;;;4300747;33;19967;-38
2021/08/24 12:07:25;;;;;;;;;;;44.70;23.00;;;;;;4300730;33;20106;-38
2021/08/24 12:09:53;;;;;;;;;;;44.60;23.30;;;;;;4312781;33;19994;-37
2021/08/24 12:12:26;;;;;;;;;;;44.40;23.30;;;;;;4358430;32;20025;-38
2021/08/24 12:14:57;;;;;;;;;;;44.30;23.40;;;;;;4359221;32;19969;-40
2021/08/24 12:17:28;;;;;;;;;;;44.20;23.90;;;;;;4358804;32;20425;-39
2021/08/24 12:20:03;;;;;;;;;;;44.00;23.50;;;;;;4358836;32;19958;-39
2021/08/24 12:22:43;;;;;;;;;;;43.80;24.20;;;;;;4359284;32;19954;-38
2021/08/24 12:25:25;;;;;;;;;;;43.50;24.30;;;;;;4345362;32;19977;-37
2021/08/24 12:27:59;;;;;;;;;;;43.30;24.50;;;;;;4346621;32;19961;-39
2021/08/24 12:30:31;;;;;;;;;;;43.00;24.50;;;;;;4358621;32;19966;-38
2021/08/24 12:32:57;;;;;;;;;;;42.80;24.60;;;;;;4357789;32;19968;-38
2021/08/24 12:35:35;;;;;;;;;;;42.50;25.00;;;;;;4358502;32;19960;-39
2021/08/24 12:38:04;;;;;;;;;;;42.30;25.40;;;;;;4359215;32;19970;-38
2021/08/24 12:40:38;;;;;;;;;;;42.10;25.80;;;;;;4345508;32;20125;-38
2021/08/24 12:43:19;;;;;;;;;;;41.80;26.10;;;;;;4358723;32;19995;-39
2021/08/24 12:45:45;;;;;;;;;;;41.50;26.20;;;;;;4358963;32;20041;-38
2021/08/24 12:48:21;;;;;;;;;;;41.40;26.40;;;;;;4345308;32;19966;-39
2021/08/24 12:50:55;;;;;;;;;;;41.30;26.40;;;;;;4359201;32;19968;-39
2021/08/24 12:53:47;;;;;;;;;;;41.10;26.50;;;;;;4345367;32;19965;-39
2021/08/24 12:56:35;;;;;;;;;;;40.90;26.70;;;;;;4358333;32;19987;-38
2021/08/24 12:59:02;;;;;;;;;;;40.70;27.00;;;;;;4344498;32;19985;-39
2021/08/24 13:01:28;;;;;;;;;;;40.40;27.30;;;;;;4358582;32;19966;-39
2021/08/24 13:04:12;;;;;;;;;;;40.20;27.30;;;;;;4344684;32;20055;-39
2021/08/24 13:06:43;;;;;;;;;;;40.00;27.30;;;;;;4358496;32;19965;-38
2021/08/24 13:09:19;;;;;;;;;;;39.90;27.40;;;;;;4344780;32;19973;-38
2021/08/24 13:12:11;;;;;;;;;;;39.80;27.60;;;;;;4358217;32;19953;-38
2021/08/24 13:14:48;;;;;;;;;;;39.70;27.60;;;;;;4358178;32;19961;-38
2021/08/24 13:17:24;;;;;;;;;;;39.60;27.70;;;;;;4358366;32;19973;-42
2021/08/24 13:19:52;;;;;;;;;;;39.40;27.90;;;;;;4345443;32;20353;-39
2021/08/24 13:22:38;;;;;;;;;;;39.20;28.20;;;;;;4358670;32;20397;-38
2021/08/24 13:25:05;;;;;;;;;;;39.10;28.40;;;;;;4332932;32;19958;-39
2021/08/24 13:27:32;;;;;;;;;;;39.00;29.60;;;;;;4358243;32;19993;-38
2021/08/24 13:30:00;;;;;;;;;;;38.80;29.20;;;;;;4344154;32;20082;-39
2021/08/24 13:32:38;;;;;;;;;;;38.70;29.40;;;;;;4344218;32;19988;-39
2021/08/24 13:35:19;;;;;;;;;;;38.40;29.30;;;;;;4344200;32;20503;-39
2021/08/24 13:37:46;;;;;;;;;;;38.30;29.70;;;;;;4344861;32;19973;-38
2021/08/24 13:40:25;;;;;;;;;;;38.10;31.00;;;;;;4344627;32;19965;-39
2021/08/24 13:42:52;;;;;;;;;;;37.90;31.00;;;;;;4358576;32;20052;-38
2021/08/24 13:45:38;;;;;;;;;;;37.70;31.40;;;;;;4344206;32;19976;-39
2021/08/24 13:48:05;;;;;;;;;;;37.50;31.60;;;;;;4344274;32;20050;-39
2021/08/24 13:50:37;;;;;;;;;;;37.40;32.20;;;;;;4357736;32;20381;-39
2021/08/24 13:53:21;;;;;;;;;;;37.10;32.60;;;;;;4344886;32;19964;-38
2021/08/24 13:55:53;;;;;;;;;;;36.90;32.80;;;;;;4358300;32;19977;-39
2021/08/24 13:58:34;;;;;;;;;;;36.60;33.00;;;;;;4358138;32;20022;-38
2021/08/24 14:01:12;;;;;;;;;;;36.50;33.00;;;;;;4358116;32;19958;-39
2021/08/24 14:03:50;;;;;;;;;;;36.30;33.20;;;;;;4357994;32;19985;-40
2021/08/24 14:06:38;;;;;;;;;;;36.30;33.60;;;;;;4344215;32;20041;-39
2021/08/24 14:09:20;;;;;;;;;;;36.20;33.80;;;;;;4357774;32;19946;-38
2021/08/24 14:11:50;;;;;;;;;;;36.00;33.90;;;;;;4358138;32;19981;-39
2021/08/24 14:14:51;;;;;;;;;;;35.80;34.00;;;;;;4344461;32;20433;-39
2021/08/24 14:17:24;;;;;;;;;;;35.60;34.10;;;;;;4357773;32;19997;-42
2021/08/24 14:19:50;;;;;;;;;;;35.40;34.30;;;;;;4357811;32;19997;-40
2021/08/24 14:22:17;;;;;;;;;;;35.30;34.30;;;;;;4357632;32;20069;-39
2021/08/24 14:24:43;;;;;;;;;;;35.10;34.30;;;;;;4331503;32;19960;-38
2021/08/24 14:27:12;;;;;;;;;;;35.00;34.60;;;;;;4332202;32;20038;-38
2021/08/24 14:29:38;;;;;;;;;;;34.80;34.70;;;;;;4358143;32;19969;-38
2021/08/24 14:32:08;;;;;;;;;;;34.60;35.10;;;;;;4353252;32;19958;-38
2021/08/24 14:34:41;;;;;;;;;;;34.30;35.30;;;;;;4372693;32;19964;-38
2021/08/24 14:37:19;;;;;;;;;;;34.10;35.70;;;;;;4373057;32;19985;-38
2021/08/24 14:40:00;;;;;;;;;;;34.00;36.00;;;;;;4372416;32;19956;-39
2021/08/24 14:42:32;;;;;;;;;;;33.90;36.20;;;;;;4375108;32;19988;-38
2021/08/24 14:44:59;;;;;;;;;;;33.80;36.30;;;;;;4375669;32;20000;-39